Time;durP1;ratioP1;P1;durP2;ratioP2;P2;SDS_P1;SDS_P2;PMS_P1;PMS_P2;Temp;Humidity;BMP_temperature;BMP_pressure;BME280_temperature;BME280_humidity;BME280_pressure;Samples;Min_cycle;Max_cycle;Signal;HPM_P1;HPM_P2
2021/09/22 00:02:06;;;;;;;5.45;4.25;;;;;;;14.87;67.89;101875.50;5069692;28;20028;-47
2021/09/22 00:04:33;;;;;;;4.30;3.90;;;;;;;14.88;68.08;101871.97;5067841;28;20032;-46
2021/09/22 00:06:59;;;;;;;4.47;4.07;;;;;;;14.87;67.94;101870.19;5066804;28;20068;-46
2021/09/22 00:09:25;;;;;;;5.47;3.95;;;;;;;14.86;67.98;101872.00;5065044;28;20063;-47
2021/09/22 00:11:51;;;;;;;4.65;3.80;;;;;;;14.85;68.10;101878.22;5070999;28;20103;-46
2021/09/22 00:14:17;;;;;;;5.68;3.92;;;;;;;14.86;68.13;101879.97;5069807;28;20949;-47
2021/09/22 00:16:43;;;;;;;5.85;4.32;;;;;;;14.87;68.10;101878.16;5066513;28;20546;-46
2021/09/22 00:19:09;;;;;;;5.10;4.20;;;;;;;14.87;68.05;101873.75;5067806;28;20513;-46
2021/09/22 00:21:35;;;;;;;5.55;4.40;;;;;;;14.86;68.00;101884.38;5066422;28;20024;-47
2021/09/22 00:24:01;;;;;;;5.10;4.57;;;;;;;14.87;68.16;101886.13;5072892;28;20046;-46
2021/09/22 00:26:27;;;;;;;5.45;4.28;;;;;;;14.86;68.07;101877.31;5072478;28;20028;-46
2021/09/22 00:28:53;;;;;;;5.00;4.50;;;;;;;14.86;68.05;101871.09;5074492;28;20039;-46
2021/09/22 00:31:19;;;;;;;4.63;4.22;;;;;;;14.86;68.02;101868.44;5069104;28;20020;-46
2021/09/22 00:33:45;;;;;;;6.20;4.68;;;;;;;14.85;68.05;101872.00;5069059;28;20047;-46
2021/09/22 00:36:11;;;;;;;5.15;4.20;;;;;;;14.85;68.11;101877.31;5072829;28;20051;-46
2021/09/22 00:38:37;;;;;;;4.82;4.00;;;;;;;14.86;68.13;101873.75;5071143;28;20029;-46
2021/09/22 00:41:03;;;;;;;4.65;4.13;;;;;;;14.85;67.98;101877.31;5071054;28;20487;-47
2021/09/22 00:43:28;;;;;;;5.30;3.97;;;;;;;14.86;68.04;101879.06;5054013;28;20375;-46
2021/09/22 00:45:57;;;;;;;5.30;4.65;;;;;;;14.84;68.32;101875.56;5076008;28;20418;-47
2021/09/22 00:48:23;;;;;;;4.78;4.28;;;;;;;14.84;68.15;101878.22;5069497;28;20036;-47
2021/09/22 00:50:49;;;;;;;5.38;4.60;;;;;;;14.84;68.10;101879.06;5038636;28;20023;-47
2021/09/22 00:53:15;;;;;;;5.38;4.40;;;;;;;14.84;68.06;101887.03;5070452;28;20033;-46
2021/09/22 00:55:44;;;;;;;4.88;4.28;;;;;;;14.83;68.34;101877.31;5057462;28;20935;-46
2021/09/22 00:58:11;;;;;;;4.35;3.95;;;;;;;14.83;68.18;101887.06;5062999;28;20035;-46
2021/09/22 01:00:38;;;;;;;7.72;4.80;;;;;;;14.85;68.12;101885.28;5070628;28;20079;-47
2021/09/22 01:03:07;;;;;;;5.47;4.97;;;;;;;14.84;68.09;101892.34;5072198;28;20067;-47
2021/09/22 01:05:33;;;;;;;8.18;5.72;;;;;;;14.83;68.33;101889.72;5070119;28;20020;-46
2021/09/22 01:08:00;;;;;;;5.57;4.72;;;;;;;14.83;68.21;101893.25;5068339;28;20036;-47
2021/09/22 01:10:26;;;;;;;4.53;4.13;;;;;;;14.83;68.09;101889.72;5067977;28;20017;-46
2021/09/22 01:12:53;;;;;;;5.93;4.57;;;;;;;14.83;68.17;101895.03;5070188;28;20024;-47
2021/09/22 01:15:29;;;;;;;6.28;5.68;;;;;;;14.82;68.06;101893.25;5068539;28;20495;-46
2021/09/22 01:17:55;;;;;;;4.80;4.40;;;;;;;14.83;68.08;101889.72;5067754;28;20029;-46
2021/09/22 01:20:20;;;;;;;5.32;4.82;;;;;;;14.82;68.23;101875.56;5055258;28;20052;-47
2021/09/22 01:22:46;;;;;;;6.88;4.55;;;;;;;14.82;68.19;101893.25;5069612;28;20036;-46
2021/09/22 01:25:13;;;;;;;6.85;4.82;;;;;;;14.83;68.12;101881.75;5072122;28;20498;-46
2021/09/22 01:27:47;;;;;;;7.68;4.13;;;;;;;14.82;68.14;101878.22;5071809;28;20040;-46
2021/09/22 01:30:13;;;;;;;5.38;4.32;;;;;;;14.82;68.25;101880.88;5073764;28;20773;-46
2021/09/22 01:32:48;;;;;;;5.63;4.88;;;;;;;14.83;68.09;101889.72;5068698;28;20513;-47
2021/09/22 01:35:14;;;;;;;6.07;4.45;;;;;;;14.81;68.21;101881.75;5069069;28;20028;-47
2021/09/22 01:37:40;;;;;;;4.93;4.45;;;;;;;14.82;68.41;101882.63;5068141;28;20046;-47
2021/09/22 01:40:07;;;;;;;5.68;4.45;;;;;;;14.82;68.21;101886.19;5069700;28;20028;-47
2021/09/22 01:42:33;;;;;;;6.90;5.22;;;;;;;14.82;68.18;101888.84;5067366;28;20044;-47
2021/09/22 01:45:02;;;;;;;5.45;4.57;;;;;;;14.83;68.22;101890.59;5066766;28;20027;-47
2021/09/22 01:47:27;;;;;;;4.90;4.22;;;;;;;14.81;68.19;101883.53;5069022;28;20040;-47
2021/09/22 01:50:03;;;;;;;6.03;4.18;;;;;;;14.82;68.13;101885.28;5069539;28;20102;-47
2021/09/22 01:52:32;;;;;;;5.50;4.13;;;;;;;14.82;68.24;101885.28;5071015;28;20081;-46
2021/09/22 01:54:58;;;;;;;5.45;4.13;;;;;;;14.81;68.29;101886.19;5072497;28;20111;-47
2021/09/22 01:57:24;;;;;;;4.47;4.07;;;;;;;14.81;68.14;101886.19;5055043;28;20145;-47
2021/09/22 01:59:50;;;;;;;4.68;4.10;;;;;;;14.81;68.29;101883.53;5070575;28;20077;-47
2021/09/22 02:02:16;;;;;;;5.18;4.28;;;;;;;14.81;68.20;101887.06;5068254;28;20017;-47
2021/09/22 02:04:42;;;;;;;4.90;4.40;;;;;;;14.81;68.25;101880.88;5065552;28;20390;-47
2021/09/22 02:07:08;;;;;;;4.90;4.00;;;;;;;14.81;68.24;101886.19;5068637;28;20028;-47
2021/09/22 02:09:34;;;;;;;5.05;4.22;;;;;;;14.80;68.33;101884.44;5050881;28;20013;-47
2021/09/22 02:12:00;;;;;;;4.63;3.80;;;;;;;14.79;68.04;101874.69;5069375;28;20097;-47
2021/09/22 02:14:28;;;;;;;5.25;4.63;;;;;;;14.79;68.19;101880.00;5068651;28;20056;-47
2021/09/22 02:16:53;;;;;;;4.82;4.25;;;;;;;14.80;68.25;101884.44;5069085;28;20032;-46
2021/09/22 02:19:20;;;;;;;5.18;4.07;;;;;;;14.75;68.34;101887.09;5070317;28;20029;-46
2021/09/22 02:21:46;;;;;;;5.85;4.20;;;;;;;14.78;68.47;101880.91;5055793;28;20031;-46
2021/09/22 02:24:12;;;;;;;5.78;4.55;;;;;;;14.78;68.31;101884.44;5067951;28;20037;-46
2021/09/22 02:26:38;;;;;;;4.40;4.00;;;;;;;14.78;68.33;101887.09;5072022;28;20024;-46
2021/09/22 02:29:04;;;;;;;4.25;3.47;;;;;;;14.77;68.23;101882.66;5053451;28;20032;-46
2021/09/22 02:31:30;;;;;;;5.40;4.80;;;;;;;14.77;68.42;101873.81;5052167;28;20031;-46
2021/09/22 02:33:56;;;;;;;4.60;4.00;;;;;;;14.77;68.24;101879.13;5068267;28;20509;-46
2021/09/22 02:36:21;;;;;;;4.88;3.85;;;;;;;14.77;68.35;101873.81;5069797;28;20021;-46
2021/09/22 02:38:47;;;;;;;7.97;4.72;;;;;;;14.76;68.32;101878.22;5067299;28;20079;-47
2021/09/22 02:41:13;;;;;;;5.10;4.00;;;;;;;14.75;68.35;101876.47;5045275;28;20481;-46
2021/09/22 02:43:39;;;;;;;4.32;3.70;;;;;;;14.75;68.37;101882.63;5065561;28;20016;-46
2021/09/22 02:46:05;;;;;;;5.13;4.38;;;;;;;14.74;68.33;101872.91;5053764;28;20397;-47
2021/09/22 02:48:30;;;;;;;4.45;3.90;;;;;;;14.74;68.35;101864.09;5068653;28;20034;-46
2021/09/22 02:50:57;;;;;;;6.13;4.32;;;;;;;14.75;68.36;101863.19;5068213;28;20091;-46
2021/09/22 02:53:22;;;;;;;4.30;3.90;;;;;;;14.74;68.49;101864.94;5063652;28;20608;-46
2021/09/22 02:55:48;;;;;;;6.53;4.47;;;;;;;14.77;68.48;101879.13;5066779;28;20036;-47
2021/09/22 02:58:15;;;;;;;5.40;4.50;;;;;;;14.75;68.60;101871.16;5067157;28;20048;-46
2021/09/22 03:00:41;;;;;;;4.82;4.25;;;;;;;14.75;68.35;101869.38;5066967;28;20510;-46
2021/09/22 03:03:06;;;;;;;5.13;4.20;;;;;;;14.74;68.40;101875.56;5066951;28;20111;-47
2021/09/22 03:05:32;;;;;;;5.80;4.53;;;;;;;14.74;68.46;101874.72;5067478;28;20028;-47
2021/09/22 03:07:58;;;;;;;5.90;4.57;;;;;;;14.75;68.40;101881.78;5065979;28;20035;-46
2021/09/22 03:10:24;;;;;;;5.60;3.97;;;;;;;14.74;68.46;101870.25;5064536;28;20102;-47
2021/09/22 03:12:52;;;;;;;5.10;4.32;;;;;;;14.75;68.39;101881.78;5063022;28;20020;-46
2021/09/22 03:15:18;;;;;;;4.65;3.88;;;;;;;14.74;68.35;101878.22;5068838;28;20166;-46
2021/09/22 03:17:44;;;;;;;5.00;4.40;;;;;;;14.74;68.45;101885.34;5066006;28;20110;-47
2021/09/22 03:20:10;;;;;;;5.32;3.90;;;;;;;14.74;68.46;101882.69;5053147;28;20033;-46
2021/09/22 03:22:36;;;;;;;5.93;4.13;;;;;;;14.73;68.44;101883.56;5066086;28;20033;-46
2021/09/22 03:25:04;;;;;;;5.88;3.75;;;;;;;14.74;68.54;101883.53;5069685;28;20394;-46
2021/09/22 03:27:30;;;;;;;4.75;4.18;;;;;;;14.73;68.43;101879.13;5065041;28;20428;-46
2021/09/22 03:29:56;;;;;;;6.68;4.65;;;;;;;14.73;68.48;101879.13;5067281;28;20119;-46
2021/09/22 03:32:22;;;;;;;4.55;4.05;;;;;;;14.72;68.40;101882.69;5067406;28;20043;-46
2021/09/22 03:34:48;;;;;;;6.30;3.83;;;;;;;14.72;68.55;101881.78;5048849;28;20032;-47
2021/09/22 03:37:14;;;;;;;7.75;4.47;;;;;;;14.72;68.52;101880.03;5067243;28;20052;-47
2021/09/22 03:39:40;;;;;;;5.10;3.92;;;;;;;14.71;68.56;101883.56;5067445;28;20024;-47
2021/09/22 03:42:05;;;;;;;6.80;4.20;;;;;;;14.70;68.85;101889.78;5064563;28;20031;-47
2021/09/22 03:44:31;;;;;;;5.00;4.20;;;;;;;14.70;68.57;101889.78;5065316;28;20524;-47
2021/09/22 03:46:57;;;;;;;5.07;4.57;;;;;;;14.69;68.57;101888.03;5049335;28;20020;-46
2021/09/22 03:49:23;;;;;;;4.85;4.20;;;;;;;14.69;68.57;101893.31;5068705;28;20025;-46
2021/09/22 03:51:49;;;;;;;5.25;3.58;;;;;;;14.70;68.62;101889.78;5067154;28;20463;-46
2021/09/22 03:54:15;;;;;;;7.40;4.40;;;;;;;14.70;68.51;101895.09;5064970;28;20496;-46
2021/09/22 03:56:41;;;;;;;5.57;4.07;;;;;;;14.69;68.55;101890.66;5074273;28;20028;-46
2021/09/22 03:59:07;;;;;;;4.38;3.72;;;;;;;14.69;68.55;101881.81;5066060;28;20402;-46
2021/09/22 04:01:33;;;;;;;4.05;3.60;;;;;;;14.70;68.64;101889.78;5069392;28;20036;-47
2021/09/22 04:03:58;;;;;;;5.35;3.95;;;;;;;14.68;68.83;101888.91;5074524;28;20017;-46
2021/09/22 04:06:24;;;;;;;5.75;4.07;;;;;;;14.68;68.64;101891.56;5076669;28;20094;-46
2021/09/22 04:08:50;;;;;;;7.22;3.80;;;;;;;14.69;68.62;101887.13;5067738;28;20032;-46
2021/09/22 04:11:17;;;;;;;6.40;4.53;;;;;;;14.68;68.66;101885.38;5070122;28;20111;-47
2021/09/22 04:13:43;;;;;;;7.40;3.33;;;;;;;14.69;68.65;101906.59;5057381;28;20038;-47
2021/09/22 04:16:12;;;;;;;5.75;3.72;;;;;;;14.68;68.71;101901.31;5075317;28;20394;-46
2021/09/22 04:18:38;;;;;;;5.63;3.67;;;;;;;14.68;68.68;101906.63;5056143;28;20406;-46
2021/09/22 04:21:03;;;;;;;5.20;3.67;;;;;;;14.67;68.70;101903.06;5073487;28;20490;-47
2021/09/22 04:23:29;;;;;;;4.60;4.20;;;;;;;14.67;68.68;101892.44;5071626;28;20674;-47
2021/09/22 04:25:55;;;;;;;5.65;4.00;;;;;;;14.67;68.71;101896.88;5060125;28;20043;-46
2021/09/22 04:28:22;;;;;;;6.75;4.00;;;;;;;14.66;68.70;101898.66;5073319;28;20027;-46
2021/09/22 04:30:48;;;;;;;5.72;3.88;;;;;;;14.66;68.69;101901.31;5075745;28;20027;-46
2021/09/22 04:33:14;;;;;;;4.82;3.22;;;;;;;14.67;68.72;101892.44;5072914;28;20039;-46
2021/09/22 04:35:40;;;;;;;5.43;3.53;;;;;;;14.66;68.61;101893.34;5069522;28;20029;-46
2021/09/22 04:38:07;;;;;;;6.15;4.18;;;;;;;14.66;68.75;101901.31;5068583;28;20525;-47
2021/09/22 04:40:33;;;;;;;3.83;3.50;;;;;;;14.66;68.76;101908.38;5070001;28;20059;-46
2021/09/22 04:43:00;;;;;;;3.78;3.38;;;;;;;14.67;68.80;101894.22;5065773;28;20024;-47
2021/09/22 04:45:27;;;;;;;4.57;3.60;;;;;;;14.68;68.76;101903.94;5043757;28;20032;-47
2021/09/22 04:47:54;;;;;;;7.57;3.70;;;;;;;14.66;68.68;101906.63;5070975;28;20410;-47
2021/09/22 04:50:20;;;;;;;6.28;3.55;;;;;;;14.66;68.82;101909.28;5075104;28;20051;-46
2021/09/22 04:52:46;;;;;;;5.43;3.38;;;;;;;14.66;68.72;101908.38;5072161;28;20458;-46
2021/09/22 04:55:12;;;;;;;6.00;3.72;;;;;;;14.66;68.74;101903.97;5073662;28;20024;-47
2021/09/22 04:57:39;;;;;;;5.60;3.58;;;;;;;14.66;68.68;101909.28;5072777;28;20055;-46
2021/09/22 05:00:06;;;;;;;7.85;3.90;;;;;;;14.66;68.75;101913.69;5055445;28;20036;-46
2021/09/22 05:02:32;;;;;;;5.63;3.40;;;;;;;14.65;68.73;101918.13;5066803;28;20034;-47
2021/09/22 05:04:58;;;;;;;3.10;2.80;;;;;;;14.65;68.73;101912.81;5064083;28;20029;-47
2021/09/22 05:07:23;;;;;;;4.65;3.70;;;;;;;14.66;68.68;101911.03;5055797;28;20085;-47
2021/09/22 05:09:49;;;;;;;4.75;2.80;;;;;;;14.63;68.73;101915.50;5067769;28;20032;-46
2021/09/22 05:12:15;;;;;;;5.07;3.70;;;;;;;14.64;68.74;101929.63;5069797;28;20024;-46
2021/09/22 05:14:41;;;;;;;5.68;3.47;;;;;;;14.62;68.63;101926.13;5071330;28;20028;-46
2021/09/22 05:17:07;;;;;;;5.88;3.35;;;;;;;14.63;68.77;101927.88;5069580;28;20024;-46
2021/09/22 05:19:33;;;;;;;4.68;3.15;;;;;;;14.63;68.65;101947.34;5070545;28;20520;-46
2021/09/22 05:21:59;;;;;;;5.43;3.28;;;;;;;14.62;68.79;101939.38;5071776;28;20037;-47
2021/09/22 05:24:25;;;;;;;3.58;3.10;;;;;;;14.63;68.81;101941.16;5068954;28;20521;-47
2021/09/22 05:26:51;;;;;;;5.70;3.33;;;;;;;14.61;68.66;101942.94;5073213;28;20032;-47
2021/09/22 05:29:17;;;;;;;5.85;3.53;;;;;;;14.62;68.75;101947.34;5065444;28;20024;-46
2021/09/22 05:31:43;;;;;;;5.20;3.13;;;;;;;14.60;68.60;101947.38;5070636;28;20397;-46
2021/09/22 05:34:09;;;;;;;3.90;3.10;;;;;;;14.60;68.72;101949.13;5070204;28;20115;-46
2021/09/22 05:36:35;;;;;;;4.57;3.10;;;;;;;14.59;68.74;101944.72;5055505;28;20123;-46
2021/09/22 05:39:01;;;;;;;4.35;3.28;;;;;;;14.60;68.82;101946.47;5071681;28;20032;-47
2021/09/22 05:41:27;;;;;;;4.50;3.20;;;;;;;14.59;68.82;101945.59;5067911;28;20545;-46
2021/09/22 05:43:52;;;;;;;5.65;3.45;;;;;;;14.58;68.84;101942.97;5070548;28;20028;-46
2021/09/22 05:46:18;;;;;;;4.55;3.25;;;;;;;14.59;68.78;101940.28;5054056;28;20552;-46
2021/09/22 05:48:44;;;;;;;3.92;3.28;;;;;;;14.59;68.84;101934.09;5071132;28;20123;-46
2021/09/22 05:51:10;;;;;;;5.22;3.17;;;;;;;14.58;68.73;101935.00;5068913;28;20044;-47
2021/09/22 05:53:36;;;;;;;5.53;3.17;;;;;;;14.57;68.78;101936.75;5072231;28;20414;-47
2021/09/22 05:56:02;;;;;;;4.50;3.00;;;;;;;14.57;68.80;101942.06;5069465;28;20032;-47
2021/09/22 05:58:28;;;;;;;2.97;2.45;;;;;;;14.58;68.84;101935.00;5055656;28;20078;-46
2021/09/22 06:00:54;;;;;;;3.83;3.17;;;;;;;14.58;68.75;101945.63;5068481;28;20029;-46
2021/09/22 06:03:20;;;;;;;5.68;3.20;;;;;;;14.58;68.82;101950.91;5072581;28;20042;-46
2021/09/22 06:05:46;;;;;;;3.65;2.55;;;;;;;14.58;68.62;101953.56;5067903;28;20078;-46
2021/09/22 06:08:12;;;;;;;6.28;3.70;;;;;;;14.58;68.68;101961.53;5067718;28;20021;-47
2021/09/22 06:10:38;;;;;;;4.32;3.08;;;;;;;14.57;68.63;101957.13;5069280;28;20031;-46
2021/09/22 06:13:05;;;;;;;4.95;3.53;;;;;;;14.56;68.76;101955.34;5069854;28;20097;-47
2021/09/22 06:15:31;;;;;;;5.22;3.58;;;;;;;14.56;68.76;101950.94;5066328;28;20032;-47
2021/09/22 06:17:57;;;;;;;6.72;3.45;;;;;;;14.55;68.91;101953.59;5070795;28;20058;-46
2021/09/22 06:20:23;;;;;;;5.18;3.22;;;;;;;14.55;68.89;101958.91;5068399;28;20044;-47
2021/09/22 06:22:49;;;;;;;5.70;3.28;;;;;;;14.55;68.87;101958.91;5070414;28;20051;-46
2021/09/22 06:25:16;;;;;;;4.25;3.38;;;;;;;14.53;68.99;101955.34;5067081;28;20126;-47
2021/09/22 06:27:42;;;;;;;6.55;3.20;;;;;;;14.54;68.86;101957.13;5067554;28;20507;-46
2021/09/22 06:30:09;;;;;;;5.65;3.67;;;;;;;14.53;68.87;101948.28;5063409;28;20020;-46
2021/09/22 06:32:35;;;;;;;6.55;4.03;;;;;;;14.53;68.79;101947.38;5049032;28;20025;-47
2021/09/22 06:35:03;;;;;;;4.65;3.35;;;;;;;14.52;68.94;101949.19;5065947;28;20020;-47
2021/09/22 06:37:29;;;;;;;3.95;3.05;;;;;;;14.52;68.84;101954.50;5068983;28;20568;-47
2021/09/22 06:39:55;;;;;;;8.00;4.03;;;;;;;14.54;68.96;101949.19;5070607;28;20029;-47
2021/09/22 06:42:20;;;;;;;5.65;3.85;;;;;;;14.52;68.97;101953.59;5066346;28;20048;-47
2021/09/22 06:44:46;;;;;;;4.05;3.30;;;;;;;14.53;68.89;101965.97;5067342;28;20490;-47
2021/09/22 06:47:12;;;;;;;7.03;3.70;;;;;;;14.53;68.91;101960.66;5049111;28;20031;-47
2021/09/22 06:49:38;;;;;;;5.65;3.88;;;;;;;14.51;68.93;101955.38;5066751;28;20482;-46
2021/09/22 06:52:04;;;;;;;3.85;3.45;;;;;;;14.51;69.02;101958.03;5069299;28;20432;-46
2021/09/22 06:54:32;;;;;;;5.13;3.42;;;;;;;14.52;69.01;101966.88;5066156;28;20035;-46
2021/09/22 06:56:59;;;;;;;5.07;3.50;;;;;;;14.51;69.05;101968.66;5068232;28;20095;-46
2021/09/22 06:59:24;;;;;;;5.85;3.60;;;;;;;14.51;68.95;101971.31;5067039;28;20050;-46
2021/09/22 07:01:50;;;;;;;5.32;4.10;;;;;;;14.50;69.08;101967.78;5065012;28;20486;-47
2021/09/22 07:04:16;;;;;;;5.30;4.43;;;;;;;14.50;69.08;101975.72;5058754;28;20091;-46
2021/09/22 07:06:42;;;;;;;4.60;3.95;;;;;;;14.51;69.04;101979.28;5061745;28;20034;-47
2021/09/22 07:09:08;;;;;;;4.90;3.58;;;;;;;14.50;69.18;101982.81;5067268;28;20135;-46
2021/09/22 07:11:34;;;;;;;4.90;3.63;;;;;;;14.49;69.10;101973.09;5054722;28;20028;-47
2021/09/22 07:14:00;;;;;;;7.20;3.90;;;;;;;14.50;69.10;101982.81;5066681;28;20391;-46
2021/09/22 07:16:27;;;;;;;6.45;3.53;;;;;;;14.49;69.07;101973.09;5068123;28;20075;-46
2021/09/22 07:18:53;;;;;;;7.20;3.92;;;;;;;14.50;69.08;101973.06;5068472;28;20130;-46
2021/09/22 07:21:19;;;;;;;4.55;3.90;;;;;;;14.48;69.21;101966.88;5066579;28;20028;-46
2021/09/22 07:23:45;;;;;;;6.25;3.97;;;;;;;14.49;69.42;101979.28;5066884;28;20386;-46
2021/09/22 07:26:11;;;;;;;7.43;4.13;;;;;;;14.47;69.29;101973.09;5068003;28;20025;-47
2021/09/22 07:28:37;;;;;;;8.00;4.03;;;;;;;14.49;69.24;101970.44;5069413;28;20089;-46
2021/09/22 07:31:03;;;;;;;6.40;4.10;;;;;;;14.50;69.25;101990.75;5067669;28;20421;-46
2021/09/22 07:33:29;;;;;;;7.05;3.90;;;;;;;14.50;69.47;101989.00;5067451;28;20089;-46
2021/09/22 07:35:55;;;;;;;5.72;4.45;;;;;;;14.52;69.33;102002.28;5069002;28;20024;-46
2021/09/22 07:38:22;;;;;;;7.70;4.03;;;;;;;14.53;69.20;101989.88;5066228;28;20036;-46
2021/09/22 07:40:48;;;;;;;6.70;4.30;;;;;;;14.53;69.15;101995.16;5052182;28;20025;-46
2021/09/22 07:43:13;;;;;;;6.07;4.68;;;;;;;14.53;69.25;102004.03;5055082;28;20655;-46
2021/09/22 07:45:39;;;;;;;7.72;3.97;;;;;;;14.52;69.30;102002.28;5066502;28;20017;-46
2021/09/22 07:48:06;;;;;;;7.85;4.68;;;;;;;14.53;69.26;102008.44;5067708;28;20798;-47
2021/09/22 07:50:32;;;;;;;8.35;5.22;;;;;;;14.50;69.25;102004.94;5066872;28;20104;-46
2021/09/22 07:52:58;;;;;;;7.90;4.35;;;;;;;14.52;69.29;102004.94;5053186;28;20107;-47
2021/09/22 07:55:23;;;;;;;7.50;5.00;;;;;;;14.52;69.19;101999.63;5064910;28;20082;-46
2021/09/22 07:57:53;;;;;;;7.10;4.28;;;;;;;14.50;69.30;101999.63;5049460;28;20028;-46
2021/09/22 08:00:19;;;;;;;6.40;4.25;;;;;;;14.51;69.26;102003.16;5068154;28;20033;-46
2021/09/22 08:02:45;;;;;;;9.65;4.28;;;;;;;14.49;69.35;101995.22;5067668;28;20021;-47
2021/09/22 08:05:11;;;;;;;4.88;3.88;;;;;;;14.50;69.23;101996.97;5069402;28;20025;-47
2021/09/22 08:07:37;;;;;;;6.95;4.47;;;;;;;14.52;69.42;101996.06;5066632;28;20103;-46
2021/09/22 08:10:04;;;;;;;7.82;4.30;;;;;;;14.53;69.52;102003.13;5068283;28;20104;-46
2021/09/22 08:12:30;;;;;;;6.22;4.68;;;;;;;14.53;69.46;102000.47;5064544;28;20024;-47
2021/09/22 08:14:56;;;;;;;6.10;4.03;;;;;;;14.50;69.51;101994.31;5065537;28;20031;-46
2021/09/22 08:17:22;;;;;;;9.23;4.47;;;;;;;14.50;69.43;101999.63;5064930;28;20021;-47
2021/09/22 08:19:48;;;;;;;7.13;4.30;;;;;;;14.52;69.52;102007.59;5067438;28;20025;-46
2021/09/22 08:22:14;;;;;;;4.65;4.18;;;;;;;14.52;69.46;101996.06;5069373;28;20029;-46
2021/09/22 08:24:40;;;;;;;7.45;4.60;;;;;;;14.52;69.50;101996.97;5068657;28;20409;-46
2021/09/22 08:27:06;;;;;;;6.45;3.95;;;;;;;14.53;69.48;102008.44;5067790;28;20486;-46
2021/09/22 08:29:33;;;;;;;8.43;4.82;;;;;;;14.50;69.51;102004.94;5063139;28;20056;-46
2021/09/22 08:31:59;;;;;;;7.30;4.15;;;;;;;14.51;69.74;102011.13;5062248;28;20020;-47
2021/09/22 08:34:25;;;;;;;7.60;4.43;;;;;;;14.51;69.53;102005.81;5068874;28;20044;-47
2021/09/22 08:36:51;;;;;;;9.57;4.90;;;;;;;14.52;69.52;102010.25;5067006;28;20036;-46
2021/09/22 08:39:18;;;;;;;6.70;4.53;;;;;;;14.52;69.57;102012.91;5065465;28;20028;-46
2021/09/22 08:41:45;;;;;;;9.63;5.00;;;;;;;14.53;69.61;102019.06;5062601;28;20119;-47
2021/09/22 08:44:12;;;;;;;8.10;4.53;;;;;;;14.53;69.52;102019.97;5067472;28;20111;-47
2021/09/22 08:46:40;;;;;;;11.40;4.97;;;;;;;14.54;69.61;102018.19;5068338;28;20402;-46
2021/09/22 08:49:07;;;;;;;9.20;5.35;;;;;;;14.52;69.75;102017.31;5058211;28;20024;-46
2021/09/22 08:51:33;;;;;;;7.07;3.80;;;;;;;14.54;69.69;102010.25;5068670;28;20027;-46
2021/09/22 08:53:59;;;;;;;9.65;4.47;;;;;;;14.53;69.65;102014.66;5074366;28;20111;-46
2021/09/22 08:56:26;;;;;;;8.13;4.20;;;;;;;14.53;69.61;102012.00;5071477;28;20024;-47
2021/09/22 08:58:52;;;;;;;8.52;4.03;;;;;;;14.55;69.76;102012.00;5068115;28;20383;-47
2021/09/22 09:01:22;;;;;;;7.45;4.53;;;;;;;14.54;69.62;102016.41;5070825;28;20056;-46
2021/09/22 09:03:49;;;;;;;7.53;4.85;;;;;;;14.55;69.41;102017.31;5066130;28;20025;-46
2021/09/22 09:06:20;;;;;;;7.97;3.72;;;;;;;14.54;69.71;102023.50;5072169;28;20024;-46
2021/09/22 09:08:48;;;;;;;9.77;4.20;;;;;;;14.54;69.65;102012.88;5071027;28;20517;-46
2021/09/22 09:11:14;;;;;;;4.63;3.47;;;;;;;14.54;69.59;102007.56;5071962;28;20632;-46
2021/09/22 09:14:00;;;;;;;5.80;4.10;;;;;;;14.54;69.65;102005.78;5070945;28;20032;-46
2021/09/22 09:16:36;;;;;;;6.28;4.10;;;;;;;14.55;69.70;102018.19;5071677;28;20036;-46
2021/09/22 09:19:09;;;;;;;9.90;4.13;;;;;;;14.54;69.74;102000.47;5069465;28;20035;-46
2021/09/22 09:21:53;;;;;;;9.55;3.85;;;;;;;14.55;69.73;102009.34;5071000;28;20482;-46
2021/09/22 09:24:37;;;;;;;8.40;4.75;;;;;;;14.55;69.82;101999.63;5067557;28;20039;-46
2021/09/22 09:27:30;;;;;;;8.63;4.18;;;;;;;14.54;69.84;102010.25;5071483;28;20036;-46
2021/09/22 09:29:56;;;;;;;6.35;3.40;;;;;;;14.55;69.75;102012.00;5069310;28;20032;-46
2021/09/22 09:32:25;;;;;;;7.55;3.67;;;;;;;14.53;69.85;102005.78;5053331;28;20078;-46
2021/09/22 09:35:03;;;;;;;9.30;3.95;;;;;;;14.53;69.90;102008.44;5069844;28;20020;-46
2021/09/22 09:37:34;;;;;;;10.95;4.80;;;;;;;14.54;69.97;102004.94;5067116;28;20036;-46
2021/09/22 09:40:29;;;;;;;9.85;4.43;;;;;;;14.54;69.95;102007.56;5064754;28;20020;-46
2021/09/22 09:42:56;;;;;;;12.07;4.15;;;;;;;14.57;69.91;102002.25;5049136;28;20028;-46
2021/09/22 09:45:24;;;;;;;7.75;3.70;;;;;;;14.56;70.00;102009.34;5064881;28;20029;-47
2021/09/22 09:48:07;;;;;;;5.55;3.78;;;;;;;14.56;69.83;102008.44;5065715;28;20028;-46
2021/09/22 09:50:41;;;;;;;9.77;4.03;;;;;;;14.57;69.91;102012.88;5066862;28;20052;-46
2021/09/22 09:53:07;;;;;;;9.32;4.13;;;;;;;14.53;69.87;101992.53;5066948;28;20078;-47
2021/09/22 09:55:38;;;;;;;10.10;4.25;;;;;;;14.55;69.90;102012.00;5050444;28;20028;-46
2021/09/22 09:58:04;;;;;;;12.40;4.65;;;;;;;14.54;69.92;101999.63;5068482;28;20040;-46
2021/09/22 10:00:38;;;;;;;7.25;3.90;;;;;;;14.58;69.95;102012.00;5065078;28;20032;-46
2021/09/22 10:03:11;;;;;;;12.23;4.88;;;;;;;14.57;69.91;101996.94;5067589;28;20154;-47
2021/09/22 10:05:37;;;;;;;12.30;4.22;;;;;;;14.59;69.90;102008.44;5067542;28;20028;-47
2021/09/22 10:08:03;;;;;;;9.13;3.72;;;;;;;14.60;69.92;102010.19;5034644;28;20089;-47
2021/09/22 10:10:29;;;;;;;10.35;4.28;;;;;;;14.60;69.83;102005.78;5064795;28;20051;-46
2021/09/22 10:12:56;;;;;;;11.65;4.03;;;;;;;14.60;69.89;102015.50;5068911;28;20070;-47
2021/09/22 10:15:23;;;;;;;11.23;4.05;;;;;;;14.61;69.75;102009.31;5053125;28;20025;-46
2021/09/22 10:17:50;;;;;;;9.65;4.25;;;;;;;14.62;69.75;102013.72;5068124;28;20020;-46
2021/09/22 10:20:17;;;;;;;7.70;4.55;;;;;;;14.62;69.78;101995.16;5066382;28;20016;-47
2021/09/22 10:22:43;;;;;;;11.82;4.05;;;;;;;14.59;69.74;101982.78;5067231;28;20090;-47
2021/09/22 10:25:10;;;;;;;10.52;4.00;;;;;;;14.62;69.77;101982.75;5065797;28;20032;-46
2021/09/22 10:27:37;;;;;;;10.18;4.25;;;;;;;14.64;69.60;101977.41;5047914;28;20401;-46
2021/09/22 10:30:05;;;;;;;10.52;5.03;;;;;;;14.64;69.64;101974.75;5066649;28;20024;-47
2021/09/22 10:32:41;;;;;;;11.75;4.32;;;;;;;14.65;69.59;101976.56;5068468;28;20098;-47
2021/09/22 10:35:25;;;;;;;7.82;4.13;;;;;;;14.65;69.58;101971.25;5062780;28;20033;-46
2021/09/22 10:37:52;;;;;;;7.32;4.35;;;;;;;14.64;69.59;101964.16;5051477;28;20036;-46
2021/09/22 10:40:19;;;;;;;11.05;4.10;;;;;;;14.66;69.54;101965.03;5067184;28;20033;-46
2021/09/22 10:42:45;;;;;;;9.07;3.67;;;;;;;14.65;69.66;101967.69;5066377;28;20485;-46
2021/09/22 10:45:22;;;;;;;10.85;4.18;;;;;;;14.65;69.59;101963.28;5063003;28;20016;-46
2021/09/22 10:47:49;;;;;;;8.13;3.60;;;;;;;14.65;69.60;101954.41;5067538;28;20078;-46
2021/09/22 10:50:41;;;;;;;10.07;4.10;;;;;;;14.66;69.51;101962.38;5067424;28;20016;-47
2021/09/22 10:53:37;;;;;;;7.55;4.05;;;;;;;14.66;69.44;101965.03;5056252;28;20040;-47
2021/09/22 10:56:08;;;;;;;6.22;3.47;;;;;;;14.67;69.53;101957.97;5064786;28;20111;-47
2021/09/22 10:58:39;;;;;;;9.23;3.55;;;;;;;14.68;69.50;101962.38;5069470;28;20070;-47
2021/09/22 11:01:05;;;;;;;8.57;3.85;;;;;;;14.68;69.42;101955.31;5066970;28;20092;-47
2021/09/22 11:03:46;;;;;;;8.73;4.53;;;;;;;14.67;69.53;101953.50;5067973;28;20616;-46
2021/09/22 11:06:46;;;;;;;9.65;4.20;;;;;;;14.68;69.41;101955.31;5064251;28;20036;-46
2021/09/22 11:09:12;;;;;;;11.65;3.55;;;;;;;14.68;69.40;101957.97;5062621;28;20111;-46
2021/09/22 11:11:56;;;;;;;6.25;3.72;;;;;;;14.69;69.60;101954.41;5068286;28;20043;-46
2021/09/22 11:14:43;;;;;;;13.23;5.10;;;;;;;14.69;69.46;101951.75;5064440;28;20027;-46
2021/09/22 11:17:26;;;;;;;7.13;4.30;;;;;;;14.70;69.51;101948.19;5049961;28;20084;-47
2021/09/22 11:19:57;;;;;;;10.45;5.00;;;;;;;14.70;69.51;101947.28;5062867;28;20012;-46
2021/09/22 11:22:31;;;;;;;9.65;5.07;;;;;;;14.71;69.43;101947.28;5064336;28;20031;-46
2021/09/22 11:25:02;;;;;;;8.20;4.30;;;;;;;14.72;69.52;101950.84;5066919;28;20023;-46
2021/09/22 11:27:29;;;;;;;;;;;;;;;14.72;69.45;101940.22;5066383;28;20035;-46